M I D A S
Marine Information and Data Acquisition System
Tripno 1186 of the Zeeleeuw from 2006-11-21 07:35:17 to 2006-11-21 15:36:30
Back to CruiseResearch ActivitiesStationsMapUnderway DataData graphs

EquipmentUnitsComment
TimeDGPSUTC
LatitudeDGPSDM.mWGS84
LongitudeDGPSDM.mWGS84
TemperatureSBE03/SBE38deg celciusITS90
ConductivitySBE21S/mITS90
SalinitySBE21 Practical Salinity Units
ChlorophylAChelsea fluorimeterg/lCalibrated in Aceton
Missing or incorrect values are displayed as -999
Sea surface data collected by the RV Zeeleeuw from 2006-11-21 07:21:41 to 2006-11-21 15:39:16
Time Latitude Longitude Temperature Conductivity Salinity ChlorophylA
2006-11-21 07:22:45 51°13.598 2°56.095 -999 0.07147 0.361156 -2.871232
2006-11-21 07:23:45 51°13.599 2°56.095 -999 0.071367 0.360639 -2.871232
2006-11-21 07:24:46 51°13.598 2°56.094 -999 0.071367 0.360665 -2.871232
2006-11-21 07:25:45 51°13.598 2°56.094 -999 0.07147 0.361226 -2.871232
2006-11-21 07:26:46 51°13.599 2°56.095 -999 0.071367 0.360716 -2.871232
2006-11-21 07:27:43 51°13.599 2°56.096 -999 0.071367 0.360742 -2.871232
2006-11-21 07:28:41 51°13.599 2°56.097 -999 0.071367 0.360774 -2.871232
2006-11-21 07:29:42 51°13.599 2°56.097 -999 0.071367 0.3608 -2.871232
2006-11-21 07:30:41 51°13.598 2°56.095 -999 0.071367 0.360826 -2.871232
2006-11-21 07:31:42 51°13.599 2°56.096 -999 0.071367 0.360864 -2.871232
2006-11-21 07:32:41 51°13.599 2°56.096 -999 0.071367 0.360903 -2.871232
2006-11-21 07:33:42 51°13.599 2°56.096 -999 0.071264 0.360399 -2.871232
2006-11-21 07:34:41 51°13.597 2°56.095 -999 0.071161 0.359908 -2.871232
2006-11-21 07:35:42 51°13.611 2°56.05 -999 0.071264 0.360482 -2.871232
2006-11-21 07:36:43 51°13.635 2°55.958 -999 0.071264 0.360515 -2.871232
2006-11-21 07:37:43 51°13.668 2°55.857 -999 0.071264 0.36056 -2.871232
2006-11-21 07:38:41 51°13.692 2°55.768 -999 0.071264 0.360585 -2.871232
2006-11-21 07:39:41 51°13.699 2°55.728 -999 0.071161 0.360075 -2.871232
2006-11-21 07:40:41 51°13.714 2°55.734 -999 0.071161 0.360094 -2.871232
2006-11-21 07:41:41 51°13.75 2°55.711 -999 0.071264 0.360637 -2.871232
2006-11-21 07:42:41 51°13.815 2°55.648 -999 0.071264 0.360656 -2.871232
2006-11-21 07:43:41 51°13.907 2°55.575 -999 0.071058 0.359596 -2.871232
2006-11-21 07:44:42 51°14.015 2°55.503 -999 0.071161 0.360152 -2.871232
2006-11-21 07:45:42 51°14.138 2°55.416 -999 0.071058 0.359622 -2.871232
2006-11-21 07:46:41 51°14.261 2°55.272 -999 0.071161 0.360177 -2.871232
2006-11-21 07:47:42 51°14.366 2°55.069 -999 0.071161 0.360197 -2.871232
2006-11-21 07:48:41 51°14.502 2°54.904 -999 0.071161 0.360248 -2.871232
2006-11-21 07:49:42 51°14.67 2°54.746 -999 0.071161 0.360274 -2.871232
2006-11-21 07:50:41 51°14.854 2°54.6 -999 0.071161 0.360325 -2.871232
2006-11-21 07:51:41 51°15.04 2°54.443 -999 0.071161 0.360396 -2.871232
2006-11-21 07:52:41 51°15.207 2°54.237 -999 0.071161 0.360416 -2.871232
2006-11-21 07:53:41 51°15.379 2°54.035 -999 0.071161 0.360486 -2.871232
2006-11-21 07:54:41 51°15.557 2°53.841 -999 0.071058 0.360014 -2.871232
2006-11-21 07:55:42 51°15.738 2°53.655 -999 0.071161 0.36059 -2.871232
2006-11-21 07:56:41 51°15.912 2°53.479 -999 0.071058 0.360097 -2.871232
2006-11-21 07:57:41 51°16.092 2°53.313 -999 0.071058 0.360168 -2.871232
2006-11-21 07:58:42 51°16.277 2°53.155 -999 0.071058 0.360213 -2.871232
2006-11-21 07:59:41 51°16.456 2°53.01 -999 0.071058 0.360271 -2.871232
2006-11-21 08:00:42 51°16.643 2°52.862 -999 0.070955 0.359785 -2.871232
2006-11-21 08:01:41 51°16.824 2°52.734 -999 0.071058 0.360387 -2.871232
2006-11-21 08:02:42 51°17.016 2°52.613 -999 0.070955 0.359908 -2.871232
2006-11-21 08:03:41 51°17.207 2°52.549 -999 0.070955 0.359972 -2.871232
2006-11-21 08:04:42 51°17.41 2°52.508 -999 0.070955 0.360043 -2.871232
2006-11-21 08:05:41 51°17.604 2°52.476 -999 0.070955 0.360108 -2.871232
2006-11-21 08:06:42 51°17.804 2°52.461 -999 0.070955 0.360224 -2.871232
2006-11-21 08:07:42 51°17.998 2°52.505 -999 0.070955 0.360204 -2.871232
2006-11-21 08:08:42 51°18.175 2°52.635 -999 0.070852 0.35975 -2.871232
2006-11-21 08:09:41 51°18.296 2°52.873 -999 0.070955 0.36034 -2.871232
2006-11-21 08:10:41 51°18.426 2°53.112 -999 0.070852 0.359885 -2.871232
2006-11-21 08:11:41 51°18.566 2°53.338 -999 0.070852 0.359898 -2.871232
2006-11-21 08:12:42 51°18.717 2°53.565 -999 0.070749 0.359399 -2.871232
2006-11-21 08:13:41 51°18.858 2°53.788 -999 0.070852 0.360086 -2.871232
2006-11-21 08:14:42 51°19.011 2°53.999 -999 0.070749 0.359489 -2.871232
2006-11-21 08:15:42 51°19.155 2°54.218 -999 0.070852 0.359885 -2.871232
2006-11-21 08:16:41 51°19.302 2°54.424 -999 3.913267 32.554426 -2.871232
2006-11-21 08:17:41 51°19.449 2°54.638 -999 3.911403 32.691535 -2.871232
2006-11-21 08:18:41 51°19.594 2°54.852 -999 3.925398 32.865125 -2.871232
2006-11-21 08:19:41 51°19.745 2°55.062 -999 3.929545 32.931924 -2.871232
2006-11-21 08:20:42 51°19.899 2°55.271 -999 3.927887 32.933304 -2.871232
2006-11-21 08:21:42 51°20.039 2°55.503 -999 3.926332 32.937266 -2.871232
2006-11-21 08:22:41 51°20.164 2°55.749 -999 3.925399 32.944637 -2.871232
2006-11-21 08:23:41 51°20.291 2°55.998 -999 3.923119 32.928131 -2.871232
2006-11-21 08:24:41 51°20.376 2°56.293 -999 3.924052 32.940886 -2.871232
2006-11-21 08:25:41 51°20.416 2°56.615 -999 3.922497 32.936804 -2.871232
2006-11-21 08:26:41 51°20.472 2°56.934 -999 3.921875 32.965649 -2.871232
2006-11-21 08:27:41 51°20.479 2°57.265 -999 3.912651 32.949407 -2.871232
2006-11-21 08:28:41 51°20.483 2°57.608 -999 3.892232 32.907205 -2.871232
2006-11-21 08:29:41 51°20.484 2°57.951 -999 3.873888 32.857554 -2.871232
2006-11-21 08:30:42 51°20.525 2°58.283 -999 3.808285 32.447181 -2.871232
2006-11-21 08:31:41 51°20.611 2°58.577 -999 3.724973 31.868563 -2.871232
2006-11-21 08:32:41 51°20.772 2°58.782 -999 3.71513 31.807612 -2.871232
2006-11-21 08:33:41 51°20.956 2°58.943 -999 3.72632 31.897386 -2.871232
2006-11-21 08:34:41 51°21.169 2°58.953 -999 3.733055 31.963135 -2.871232
2006-11-21 08:35:42 51°21.386 2°58.881 -999 3.732848 31.961963 -2.871232
2006-11-21 08:36:42 51°21.576 2°58.777 -999 3.719689 31.860633 -2.871232
2006-11-21 08:37:42 51°21.718 2°58.676 -999 3.750981 32.108979 -2.871232
2006-11-21 08:38:42 51°21.855 2°58.601 -999 3.84435 32.723547 -2.871232
2006-11-21 08:39:42 51°21.994 2°58.529 -999 3.89358 32.907731 -2.871232
2006-11-21 08:40:42 51°21.954 2°58.348 -999 3.919077 32.983033 -2.871232
2006-11-21 08:41:42 51°21.845 2°58.293 -999 3.914205 32.896203 -2.871232
2006-11-21 08:42:42 51°21.788 2°58.23 -999 3.906016 32.860538 -2.871232
2006-11-21 08:43:41 51°21.771 2°58.225 -999 3.911717 32.916421 -2.871232
2006-11-21 08:44:41 51°21.764 2°58.229 -999 3.918456 32.995805 -2.871232
2006-11-21 08:45:42 51°21.755 2°58.231 -999 3.918974 33.003909 -2.871232
2006-11-21 08:46:42 51°21.746 2°58.233 -999 3.916486 32.998367 -2.871232
2006-11-21 08:47:42 51°21.735 2°58.237 -999 3.915968 33.005653 -2.871232
2006-11-21 08:48:42 51°21.724 2°58.24 -999 3.914102 32.993795 -2.871232
2006-11-21 08:49:42 51°21.712 2°58.244 -999 3.914621 32.997044 -2.871232
2006-11-21 08:50:43 51°21.701 2°58.248 -999 3.913066 32.990539 -2.871232
2006-11-21 08:51:41 51°21.692 2°58.253 -999 3.914206 32.993149 -2.871232
2006-11-21 08:52:42 51°21.681 2°58.26 -999 3.91234 32.986151 -2.871232
2006-11-21 08:53:42 51°21.667 2°58.266 -999 3.911718 32.988411 -2.871232
2006-11-21 08:54:42 51°21.613 2°58.226 -999 3.905396 32.964628 -2.871232
2006-11-21 08:55:42 51°21.601 2°58.111 -999 3.897933 32.947929 -2.871232
2006-11-21 08:56:42 51°21.686 2°58.128 -999 3.902908 32.966369 -2.871232
2006-11-21 08:57:42 51°21.775 2°58.137 -999 3.91348 32.995246 -2.871232
2006-11-21 08:58:43 51°21.791 2°58.13 -999 3.924779 33.030857 -2.871232
2006-11-21 08:59:42 51°21.79 2°58.127 -999 3.926437 33.031034 -2.871232
2006-11-21 09:00:42 51°21.783 2°58.13 -999 3.927992 33.033476 -2.871232
2006-11-21 09:01:41 51°21.774 2°58.136 -999 3.926126 33.032973 -2.871232
2006-11-21 09:02:42 51°21.763 2°58.144 -999 3.925089 33.023251 -2.871232
2006-11-21 09:03:42 51°21.749 2°58.15 -999 3.925504 33.034426 -2.871232
2006-11-21 09:04:42 51°21.735 2°58.158 -999 3.925504 33.040904 -2.871232
2006-11-21 09:05:43 51°21.72 2°58.164 -999 3.922187 33.029215 -2.871232
2006-11-21 09:06:41 51°21.707 2°58.17 -999 3.917212 32.997891 -2.871232
2006-11-21 09:07:42 51°21.694 2°58.176 -999 3.917523 33.012154 -2.871232
2006-11-21 09:08:41 51°21.682 2°58.183 -999 3.913377 32.989409 -2.871232
2006-11-21 09:09:42 51°21.673 2°58.191 -999 3.913895 33.001575 -2.871232
2006-11-21 09:10:42 51°21.664 2°58.202 -999 3.910889 32.982237 -2.871232
2006-11-21 09:11:42 51°21.654 2°58.21 -999 3.912859 33.008053 -2.871232
2006-11-21 09:12:42 51°21.676 2°58.209 -999 3.912133 33.000419 -2.871232
2006-11-21 09:13:42 51°21.667 2°58.215 -999 3.910993 32.979969 -2.871232
2006-11-21 09:14:42 51°21.655 2°58.225 -999 3.912133 32.989876 -2.871232
2006-11-21 09:15:42 51°21.646 2°58.233 -999 3.911719 32.995709 -2.871232
2006-11-21 09:16:42 51°21.64 2°58.242 -999 3.909956 32.975089 -2.871232
2006-11-21 09:17:43 51°21.681 2°58.226 -999 3.91234 32.990204 -2.871232
2006-11-21 09:18:43 51°21.743 2°58.131 -999 3.922187 33.025165 -2.871232
2006-11-21 09:19:42 51°21.75 2°58.115 -999 3.929236 33.036238 -2.871232
2006-11-21 09:20:43 51°21.745 2°58.119 -999 3.926436 32.998694 -2.871232
2006-11-21 09:21:42 51°21.739 2°58.128 -999 3.927577 32.998878 -2.871232
2006-11-21 09:22:42 51°21.732 2°58.139 -999 3.930997 32.992981 -2.871232
2006-11-21 09:23:43 51°21.724 2°58.145 -999 3.931205 33.015091 -2.871232
2006-11-21 09:24:42 51°21.713 2°58.154 -999 3.923741 32.96457 -2.871232
2006-11-21 09:25:43 51°21.7 2°58.162 -999 3.9254 32.988176 -2.871232
2006-11-21 09:26:43 51°21.687 2°58.172 -999 3.927162 33.008725 -2.871232
2006-11-21 09:27:41 51°21.674 2°58.183 -999 3.925296 32.99528 -2.871232
2006-11-21 09:28:42 51°21.661 2°58.191 -999 3.928925 33.034132 -2.871232
2006-11-21 09:29:43 51°21.648 2°58.201 -999 3.924674 33.002379 -2.871232
2006-11-21 09:30:43 51°21.636 2°58.213 -999 3.927266 33.026673 -2.871232
2006-11-21 09:31:41 51°21.624 2°58.224 -999 3.927992 33.040759 -2.871232
2006-11-21 09:32:42 51°21.612 2°58.239 -999 3.926333 33.028443 -2.871232
2006-11-21 09:33:42 51°21.628 2°58.25 -999 3.924778 33.010627 -2.871232
2006-11-21 09:34:42 51°21.669 2°58.23 -999 3.923742 32.99525 -2.871232
2006-11-21 09:35:42 51°21.706 2°58.172 -999 3.928613 33.019898 -2.871232
2006-11-21 09:36:42 51°21.709 2°58.171 -999 3.926436 32.988198 -2.871232
2006-11-21 09:37:42 51°21.704 2°58.18 -999 3.922912 32.956804 -2.871232
2006-11-21 09:38:42 51°21.698 2°58.194 -999 3.934107 33.049542 -2.871232
2006-11-21 09:39:42 51°21.69 2°58.205 -999 3.934729 33.052942 -2.871232
2006-11-21 09:40:43 51°21.681 2°58.217 -999 3.933278 33.057138 -2.871232
2006-11-21 09:41:43 51°21.671 2°58.23 -999 3.92965 33.037698 -2.871232
2006-11-21 09:42:41 51°21.663 2°58.24 -999 3.929236 33.036238 -2.871232
2006-11-21 09:43:43 51°21.655 2°58.253 -999 3.931724 33.072516 -2.871232
2006-11-21 09:44:42 51°21.646 2°58.265 -999 3.92851 33.050478 -2.871232
2006-11-21 09:45:42 51°21.637 2°58.278 -999 3.928718 33.056472 -2.871232
2006-11-21 09:46:42 51°21.627 2°58.292 -999 3.927785 33.05258 -2.871232
2006-11-21 09:47:43 51°21.616 2°58.306 -999 3.926852 33.046258 -2.871232
2006-11-21 09:48:42 51°21.636 2°58.312 -999 3.927059 33.051443 -2.871232
2006-11-21 09:49:42 51°21.686 2°58.218 -999 3.925401 33.047224 -2.871232
2006-11-21 09:50:41 51°21.694 2°58.154 -999 3.918559 32.984641 -2.871232
2006-11-21 09:51:42 51°21.688 2°58.163 -999 3.922395 33.024681 -2.871232
2006-11-21 09:52:42 51°21.678 2°58.179 -999 3.924053 33.042679 -2.871232
2006-11-21 09:53:42 51°21.664 2°58.196 -999 3.917419 32.975559 -2.871232
2006-11-21 09:54:43 51°21.652 2°58.211 -999 3.921047 33.014462 -2.871232
2006-11-21 09:55:42 51°21.646 2°58.226 -999 3.919181 32.995331 -2.871232
2006-11-21 09:56:42 51°21.697 2°58.2 -999 3.920529 33.011217 -2.871232
2006-11-21 09:57:43 51°21.681 2°58.017 -999 3.909023 32.950932 -2.871232
2006-11-21 09:58:42 51°21.609 2°57.761 -999 3.910162 32.899418 -2.871232
2006-11-21 09:59:42 51°21.544 2°57.502 -999 3.921149 32.929022 -2.871232
2006-11-21 10:00:41 51°21.522 2°57.37 -999 3.928302 32.961321 -2.871232
2006-11-21 10:01:42 51°21.513 2°57.376 -999 3.890362 32.597181 -2.871232
2006-11-21 10:02:42 51°21.5 2°57.392 -999 3.928716 32.955537 -2.871232
2006-11-21 10:03:42 51°21.486 2°57.408 -999 3.924673 32.920148 -2.871232
2006-11-21 10:04:42 51°21.473 2°57.423 -999 3.937217 33.035038 -2.871232
2006-11-21 10:05:42 51°21.458 2°57.438 -999 3.940016 33.057992 -2.871232
2006-11-21 10:06:41 51°21.446 2°57.455 -999 3.938461 33.045061 -2.871232
2006-11-21 10:07:42 51°21.437 2°57.476 -999 3.940015 33.053956 -2.871232
2006-11-21 10:08:42 51°21.429 2°57.494 -999 3.933899 32.999174 -2.871232
2006-11-21 10:09:41 51°21.419 2°57.515 -999 3.938253 33.03828 -2.871232
2006-11-21 10:10:42 51°21.41 2°57.538 -999 3.93732 33.031974 -2.871232
2006-11-21 10:11:42 51°21.401 2°57.561 -999 3.938668 33.047 -2.871232
2006-11-21 10:12:42 51°21.392 2°57.585 -999 3.939083 33.052494 -2.871232
2006-11-21 10:13:42 51°21.383 2°57.611 -999 3.935558 33.018717 -2.871232
2006-11-21 10:14:42 51°21.414 2°57.617 -999 3.935869 33.015175 -2.871232
2006-11-21 10:15:43 51°21.468 2°57.517 -999 3.937217 33.036652 -2.871232
2006-11-21 10:16:42 51°21.465 2°57.384 -999 3.931515 32.994605 -2.871232
2006-11-21 10:17:42 51°21.459 2°57.385 -999 3.929753 32.977313 -2.871232
2006-11-21 10:18:42 51°21.451 2°57.407 -999 3.935454 33.030656 -2.871232
2006-11-21 10:19:42 51°21.441 2°57.433 -999 3.941363 33.088378 -2.871232
2006-11-21 10:20:41 51°21.432 2°57.46 -999 3.939809 33.078674 -2.871232
2006-11-21 10:21:42 51°21.423 2°57.487 -999 3.940431 33.085305 -2.871232
2006-11-21 10:22:42 51°21.413 2°57.515 -999 3.939394 33.073176 -2.871232
2006-11-21 10:23:41 51°21.405 2°57.537 -999 3.94012 33.081585 -2.871232
2006-11-21 10:24:42 51°21.398 2°57.565 -999 3.941156 33.084012 -2.871232
2006-11-21 10:25:42 51°21.443 2°57.558 -999 3.941363 33.086761 -2.871232
2006-11-21 10:26:42 51°21.508 2°57.463 -999 3.94012 33.083202 -2.871232
2006-11-21 10:27:42 51°21.551 2°57.392 -999 3.928821 33.020225 -2.871232
2006-11-21 10:28:42 51°21.561 2°57.393 -999 3.917004 32.96601 -2.871232
2006-11-21 10:29:42 51°21.562 2°57.418 -999 3.907675 32.900287 -2.871232
2006-11-21 10:30:42 51°21.557 2°57.443 -999 3.911303 32.935951 -2.871232
2006-11-21 10:31:42 51°21.55 2°57.471 -999 3.91234 32.948914 -2.871232
2006-11-21 10:32:42 51°21.541 2°57.498 -999 3.910474 32.928168 -2.871232
2006-11-21 10:33:43 51°21.533 2°57.527 -999 3.903425 32.863635 -2.871232
2006-11-21 10:34:42 51°21.525 2°57.555 -999 3.907364 32.890913 -2.871232
2006-11-21 10:35:42 51°21.519 2°57.586 -999 3.915242 32.963219 -2.871232
2006-11-21 10:36:42 51°21.542 2°57.609 -999 3.915553 32.955628 -2.871232
2006-11-21 10:37:42 51°21.587 2°57.559 -999 3.911718 32.971395 -2.871232
2006-11-21 10:38:42 51°21.582 2°57.464 -999 3.891403 32.863742 -2.871232
2006-11-21 10:39:42 51°21.559 2°57.397 -999 3.894616 32.900467 -2.871232
2006-11-21 10:40:42 51°21.548 2°57.401 -999 3.891403 32.862123 -2.871232
2006-11-21 10:41:42 51°21.541 2°57.439 -999 3.89928 32.912768 -2.871232
2006-11-21 10:42:42 51°21.532 2°57.445 -999 3.901353 32.91931 -2.871232
2006-11-21 10:43:42 51°21.527 2°57.473 -999 3.907572 32.948629 -2.871232
2006-11-21 10:44:43 51°21.524 2°57.522 -999 3.900731 32.888384 -2.871232
2006-11-21 10:45:42 51°21.521 2°57.578 -999 3.900213 32.913445 -2.871232
2006-11-21 10:46:42 51°21.52 2°57.641 -999 3.895341 32.891905 -2.871232
2006-11-21 10:47:42 51°21.508 2°57.661 -999 3.893268 32.880492 -2.871232
2006-11-21 10:48:42 51°21.489 2°57.594 -999 3.897414 32.902503 -2.871232
2006-11-21 10:49:43 51°21.49 2°57.496 -999 3.911511 32.975117 -2.871232
2006-11-21 10:50:41 51°21.484 2°57.394 -999 3.920943 33.01106 -2.871232
2006-11-21 10:51:43 51°21.479 2°57.369 -999 3.919596 33.001651 -2.871232
2006-11-21 10:52:42 51°21.473 2°57.373 -999 3.919596 33.012177 -2.871232
2006-11-21 10:53:42 51°21.468 2°57.393 -999 3.90923 32.910841 -2.871232
2006-11-21 10:54:42 51°21.463 2°57.414 -999 3.916382 32.978773 -2.871232
2006-11-21 10:55:41 51°21.461 2°57.437 -999 3.916901 32.980402 -2.871232
2006-11-21 10:56:41 51°21.459 2°57.455 -999 3.91265 32.930015 -2.871232
2006-11-21 10:57:42 51°21.457 2°57.466 -999 3.916382 32.958559 -2.871232
2006-11-21 10:58:41 51°21.458 2°57.477 -999 3.92001 32.994213 -2.871232
2006-11-21 10:59:41 51°21.463 2°57.488 -999 3.917626 32.971844 -2.871232
2006-11-21 11:00:42 51°21.462 2°57.499 -999 3.923016 33.025658 -2.871232
2006-11-21 11:01:42 51°21.459 2°57.502 -999 3.921254 33.001838 -2.871232
2006-11-21 11:02:41 51°21.46 2°57.513 -999 3.92623 33.037994 -2.871232
2006-11-21 11:03:41 51°21.469 2°57.496 -999 3.925607 33.010316 -2.871232
2006-11-21 11:04:42 51°21.469 2°57.442 -999 3.926851 33.028448 -2.871232
2006-11-21 11:05:42 51°21.466 2°57.379 -999 3.920528 32.953023 -2.871232
2006-11-21 11:06:42 51°21.443 2°57.327 -999 3.929339 33.044492 -2.871232
2006-11-21 11:07:42 51°21.423 2°57.279 -999 3.923223 32.99524 -2.871232
2006-11-21 11:08:41 51°21.419 2°57.251 -999 3.924571 33.025673 -2.871232
2006-11-21 11:09:42 51°21.423 2°57.266 -999 3.923742 32.998483 -2.871232
2006-11-21 11:10:41 51°21.431 2°57.311 -999 3.925607 33.01355 -2.871232
2006-11-21 11:11:42 51°21.433 2°57.372 -999 3.930169 33.054696 -2.871232
2006-11-21 11:12:42 51°21.431 2°57.425 -999 3.927473 33.033471 -2.871232
2006-11-21 11:13:41 51°21.449 2°57.471 -999 3.930376 33.059069 -2.871232
2006-11-21 11:14:42 51°21.48 2°57.495 -999 3.926955 33.040752 -2.871232
2006-11-21 11:15:41 51°21.502 2°57.501 -999 3.92426 33.014664 -2.871232
2006-11-21 11:16:42 51°21.506 2°57.501 -999 3.92737 33.034927 -2.871232
2006-11-21 11:17:42 51°21.498 2°57.489 -999 3.927162 33.027319 -2.871232
2006-11-21 11:18:41 51°21.493 2°57.467 -999 3.92965 33.040934 -2.871232
2006-11-21 11:19:42 51°21.488 2°57.443 -999 3.930272 33.044337 -2.871232
2006-11-21 11:20:41 51°21.478 2°57.428 -999 3.938254 33.084334 -2.871232
2006-11-21 11:21:42 51°21.476 2°57.414 -999 3.939809 33.090806 -2.871232
2006-11-21 11:22:42 51°21.472 2°57.39 -999 3.940742 33.092261 -2.871232
2006-11-21 11:23:41 51°21.466 2°57.37 -999 3.93815 33.067998 -2.871232
2006-11-21 11:24:41 51°21.461 2°57.348 -999 3.942607 33.10164 -2.871232
2006-11-21 11:25:41 51°21.462 2°57.332 -999 3.940638 33.080778 -2.871232
2006-11-21 11:26:41 51°21.471 2°57.312 -999 3.93929 33.083525 -2.871232
2006-11-21 11:27:41 51°21.482 2°57.289 -999 3.942608 33.11216 -2.871232
2006-11-21 11:28:42 51°21.481 2°57.269 -999 3.944992 33.121532 -2.871232
2006-11-21 11:29:42 51°21.476 2°57.251 -999 3.949967 33.142202 -2.871232
2006-11-21 11:30:42 51°21.48 2°57.227 -999 3.95712 33.166214 -2.871232
2006-11-21 11:31:42 51°21.492 2°57.2 -999 3.959401 33.172162 -2.871232
2006-11-21 11:32:41 51°21.498 2°57.186 -999 3.959919 33.174579 -2.871232
2006-11-21 11:33:42 51°21.494 2°57.177 -999 3.960126 33.174899 -2.871232
2006-11-21 11:34:42 51°21.499 2°57.154 -999 3.96023 33.175868 -2.871232
2006-11-21 11:35:41 51°21.509 2°57.128 -999 3.960541 33.174731 -2.871232
2006-11-21 11:36:42 51°21.516 2°57.111 -999 3.960645 33.175699 -2.871232
2006-11-21 11:37:41 51°21.52 2°57.096 -999 3.961059 33.176339 -2.871232
2006-11-21 11:38:42 51°21.519 2°57.077 -999 3.961163 33.175691 -2.871232
2006-11-21 11:39:42 51°21.518 2°57.069 -999 3.96137 33.176011 -2.871232
2006-11-21 11:40:41 51°21.516 2°57.055 -999 3.961577 33.176331 -2.871232
2006-11-21 11:41:42 51°21.515 2°57.039 -999 3.961888 33.176003 -2.871232
2006-11-21 11:42:42 51°21.507 2°56.983 -999 3.961888 33.176003 -2.871232
2006-11-21 11:43:41 51°21.435 2°56.816 -999 3.956912 33.127119 -2.871232
2006-11-21 11:44:42 51°21.332 2°56.57 -999 3.926227 32.832049 -2.871232
2006-11-21 11:45:41 51°21.235 2°56.327 -999 3.950381 33.046842 -2.871232
2006-11-21 11:46:42 51°21.136 2°56.073 -999 3.946027 32.999808 -2.871232
2006-11-21 11:47:41 51°21.042 2°55.826 -999 3.947685 33.013667 -2.871232
2006-11-21 11:48:42 51°20.944 2°55.567 -999 3.935556 32.908613 -2.871232
2006-11-21 11:49:42 51°20.846 2°55.321 -999 3.935971 32.924498 -2.871232
2006-11-21 11:50:41 51°20.746 2°55.08 -999 3.942088 32.99118 -2.871232
2006-11-21 11:51:42 51°20.644 2°54.833 -999 3.934002 32.926173 -2.871232
2006-11-21 11:52:42 51°20.541 2°54.593 -999 3.932032 32.918222 -2.871232
2006-11-21 11:53:42 51°20.44 2°54.348 -999 3.936283 32.966729 -2.871232
2006-11-21 11:54:42 51°20.331 2°54.113 -999 3.934624 32.958474 -2.871232
2006-11-21 11:55:42 51°20.218 2°53.888 -999 3.935972 32.979905 -2.871232
2006-11-21 11:56:43 51°20.105 2°53.654 -999 3.926953 32.910123 -2.871232
2006-11-21 11:57:42 51°19.996 2°53.436 -999 3.924155 32.890398 -2.871232
2006-11-21 11:58:42 51°19.887 2°53.209 -999 3.924777 32.894603 -2.871232
2006-11-21 11:59:42 51°19.811 2°53.048 -999 3.930374 32.94369 -2.871232
2006-11-21 12:00:42 51°19.814 2°53.001 -999 3.932448 32.962259 -2.871232
2006-11-21 12:01:42 51°19.836 2°53.042 -999 3.929856 32.939651 -2.871232
2006-11-21 12:02:41 51°19.852 2°53.098 -999 3.9311 32.955296 -2.871232
2006-11-21 12:03:42 51°19.87 2°53.159 -999 3.930996 32.955132 -2.871232
2006-11-21 12:04:42 51°19.886 2°53.218 -999 3.933588 32.968892 -2.871232
2006-11-21 12:05:42 51°19.903 2°53.277 -999 3.932136 32.938455 -2.871232
2006-11-21 12:06:42 51°19.92 2°53.336 -999 3.936283 32.999713 -2.871232
2006-11-21 12:07:42 51°19.935 2°53.395 -999 3.938253 33.025376 -2.871232
2006-11-21 12:08:41 51°19.95 2°53.452 -999 3.934625 32.991458 -2.871232
2006-11-21 12:09:41 51°20.008 2°53.465 -999 3.930893 32.954967 -2.871232
2006-11-21 12:10:42 51°20.014 2°53.403 -999 3.929234 32.940271 -2.871232
2006-11-21 12:11:41 51°19.928 2°53.297 -999 3.921459 32.862813 -2.871232
2006-11-21 12:12:42 51°19.878 2°53.167 -999 3.937631 33.009086 -2.871232
2006-11-21 12:13:42 51°19.882 2°53.117 -999 3.935143 32.989861 -2.871232
2006-11-21 12:14:42 51°19.896 2°53.121 -999 3.938979 33.026517 -2.871232
2006-11-21 12:15:41 51°19.913 2°53.149 -999 3.933484 32.97275 -2.871232
2006-11-21 12:16:42 51°19.929 2°53.19 -999 3.938149 33.014736 -2.871232
2006-11-21 12:17:42 51°19.94 2°53.227 -999 3.93929 33.027006 -2.871232
2006-11-21 12:18:42 51°19.948 2°53.241 -999 3.932137 32.95694 -2.871232
2006-11-21 12:19:42 51°19.965 2°53.252 -999 3.939082 33.023456 -2.871232
2006-11-21 12:20:42 51°19.986 2°53.26 -999 3.935143 32.986641 -2.871232
2006-11-21 12:21:42 51°19.993 2°53.259 -999 3.938771 33.018132 -2.871232
2006-11-21 12:22:41 51°19.923 2°53.242 -999 3.933173 32.967431 -2.871232
2006-11-21 12:23:42 51°19.827 2°53.182 -999 3.934106 32.976149 -2.871232
2006-11-21 12:24:42 51°19.772 2°53.132 -999 3.932033 32.948736 -2.871232
2006-11-21 12:25:42 51°19.776 2°53.127 -999 3.935557 32.982467 -2.871232
2006-11-21 12:26:41 51°19.793 2°53.148 -999 3.938045 33.004103 -2.871232
2006-11-21 12:27:42 51°19.802 2°53.171 -999 3.929752 32.927433 -2.871232
2006-11-21 12:28:42 51°19.806 2°53.188 -999 3.932136 32.947293 -2.871232
2006-11-21 12:29:42 51°19.811 2°53.205 -999 3.937009 32.990393 -2.871232
2006-11-21 12:30:42 51°19.818 2°53.23 -999 3.9396 33.014605 -2.871232
2006-11-21 12:31:42 51°19.826 2°53.248 -999 3.932758 32.949888 -2.871232
2006-11-21 12:32:42 51°19.832 2°53.271 -999 3.939289 33.010894 -2.871232
2006-11-21 12:33:42 51°19.838 2°53.305 -999 3.934624 32.967317 -2.871232
2006-11-21 12:34:42 51°19.84 2°53.319 -999 3.939082 33.007347 -2.871232
2006-11-21 12:35:41 51°19.841 2°53.323 -999 3.937216 32.986698 -2.871232
2006-11-21 12:36:41 51°19.846 2°53.342 -999 3.937527 32.989603 -2.871232
2006-11-21 12:37:42 51°19.851 2°53.366 -999 3.940326 33.012527 -2.871232
2006-11-21 12:38:42 51°19.855 2°53.389 -999 3.93421 32.953798 -2.871232
2006-11-21 12:39:42 51°19.859 2°53.424 -999 3.936801 32.979608 -2.871232
2006-11-21 12:40:42 51°19.857 2°53.426 -999 3.938978 32.99994 -2.871232
2006-11-21 12:41:42 51°19.867 2°53.367 -999 3.939185 32.999462 -2.871232
2006-11-21 12:42:42 51°19.854 2°53.268 -999 3.938563 32.988827 -2.871232
2006-11-21 12:43:42 51°19.835 2°53.153 -999 3.938356 32.978851 -2.871232
2006-11-21 12:44:42 51°19.842 2°53.126 -999 3.941466 32.999843 -2.871232
2006-11-21 12:45:42 51°19.854 2°53.138 -999 3.941673 32.999366 -2.871232
2006-11-21 12:46:42 51°19.86 2°53.168 -999 3.939911 32.986133 -2.871232
2006-11-21 12:47:41 51°19.863 2°53.186 -999 3.940636 32.989691 -2.871232
2006-11-21 12:48:43 51°19.866 2°53.199 -999 3.941673 32.996151 -2.871232
2006-11-21 12:49:42 51°19.868 2°53.222 -999 3.939807 32.975523 -2.871232
2006-11-21 12:50:42 51°19.872 2°53.235 -999 3.939392 32.968442 -2.871232
2006-11-21 12:51:41 51°19.871 2°53.24 -999 3.940533 32.972656 -2.871232
2006-11-21 12:52:42 51°19.875 2°53.245 -999 3.943331 32.995554 -2.871232
2006-11-21 12:53:42 51°19.88 2°53.26 -999 3.944057 32.99911 -2.871232
2006-11-21 12:54:42 51°19.882 2°53.287 -999 3.943331 32.992341 -2.871232
2006-11-21 12:55:42 51°19.883 2°53.313 -999 3.938563 32.943854 -2.871232
2006-11-21 12:56:42 51°19.887 2°53.329 -999 3.944783 32.997042 -2.871232
2006-11-21 12:57:42 51°19.892 2°53.343 -999 3.944782 32.986605 -2.871232
2006-11-21 12:58:42 51°19.859 2°53.332 -999 3.94499 32.984525 -2.871232
2006-11-21 12:59:43 51°19.804 2°53.239 -999 3.946648 32.979127 -2.871232
2006-11-21 13:00:42 51°19.767 2°53.134 -999 3.944678 32.942357 -2.871232
2006-11-21 13:01:41 51°19.752 2°53.081 -999 3.949654 32.979876 -2.871232
2006-11-21 13:02:42 51°19.752 2°53.082 -999 3.950691 32.980715 -2.871232
2006-11-21 13:03:42 51°19.757 2°53.104 -999 3.957533 33.036385 -2.871232
2006-11-21 13:04:42 51°19.763 2°53.127 -999 3.956496 33.022727 -2.871232
2006-11-21 13:05:41 51°19.769 2°53.15 -999 3.951209 32.965526 -2.871232
2006-11-21 13:06:41 51°19.772 2°53.158 -999 3.957533 33.021954 -2.871232
2006-11-21 13:07:42 51°19.774 2°53.166 -999 3.955874 33.00492 -2.871232
2006-11-21 13:08:42 51°19.775 2°53.181 -999 3.957947 33.024209 -2.871232
2006-11-21 13:09:41 51°19.776 2°53.205 -999 3.959191 33.029372 -2.871232
2006-11-21 13:10:43 51°19.782 2°53.217 -999 3.959606 33.02762 -2.871232
2006-11-21 13:11:43 51°19.767 2°53.191 -999 3.961886 33.03441 -2.871232
2006-11-21 13:12:43 51°19.732 2°53.145 -999 3.961471 33.023349 -2.871232
2006-11-21 13:13:42 51°19.718 2°53.122 -999 3.962508 33.026581 -2.871232
2006-11-21 13:14:42 51°19.718 2°53.138 -999 3.954007 32.940405 -2.871232
2006-11-21 13:15:42 51°19.719 2°53.165 -999 3.960953 32.997735 -2.871232
2006-11-21 13:16:42 51°19.723 2°53.186 -999 3.965307 33.034184 -2.871232
2006-11-21 13:17:41 51°19.724 2°53.201 -999 3.964892 33.025532 -2.871232
2006-11-21 13:18:41 51°19.722 2°53.213 -999 3.965307 33.024585 -2.871232
2006-11-21 13:19:42 51°19.733 2°53.196 -999 3.970076 33.065675 -2.871232
2006-11-21 13:20:42 51°19.812 2°53.213 -999 3.964581 33.016247 -2.871232
2006-11-21 13:21:42 51°19.917 2°53.347 -999 3.963234 33.023722 -2.871232
2006-11-21 13:22:42 51°20.02 2°53.491 -999 3.960124 33.018826 -2.871232
2006-11-21 13:23:42 51°20.005 2°53.638 -999 3.957014 33.019535 -2.871232
2006-11-21 13:24:42 51°19.99 2°53.693 -999 3.95463 32.978144 -2.871232
2006-11-21 13:25:42 51°19.961 2°53.648 -999 3.958569 32.997168 -2.871232
2006-11-21 13:26:42 51°19.952 2°53.61 -999 3.962508 33.02498 -2.871232
2006-11-21 13:27:42 51°19.949 2°53.594 -999 3.95888 32.986466 -2.871232
2006-11-21 13:28:41 51°19.951 2°53.603 -999 3.956391 32.957762 -2.871232
2006-11-21 13:29:42 51°19.946 2°53.594 -999 3.961782 32.999044 -2.871232
2006-11-21 13:30:42 51°19.947 2°53.611 -999 3.963752 33.019738 -2.871232
2006-11-21 13:31:42 51°19.95 2°53.637 -999 3.961367 32.995992 -2.871232
2006-11-21 13:32:41 51°19.955 2°53.653 -999 3.952037 32.909353 -2.871232
2006-11-21 13:33:42 51°19.963 2°53.667 -999 3.966966 33.043191 -2.871232
2006-11-21 13:34:42 51°19.968 2°53.684 -999 3.968935 33.058285 -2.871232
2006-11-21 13:35:41 51°19.968 2°53.704 -999 3.969557 33.060861 -2.871232
2006-11-21 13:36:41 51°19.965 2°53.719 -999 3.96935 33.058935 -2.871232
2006-11-21 13:37:42 51°19.965 2°53.741 -999 3.96935 33.057335 -2.871232
2006-11-21 13:38:42 51°19.97 2°53.765 -999 3.970179 33.061835 -2.871232
2006-11-21 13:39:42 51°19.969 2°53.756 -999 3.967484 33.039205 -2.871232
2006-11-21 13:40:42 51°19.925 2°53.66 -999 3.968002 33.041619 -2.871232
2006-11-21 13:41:43 51°19.819 2°53.524 -999 3.969454 33.048696 -2.871232
2006-11-21 13:42:42 51°19.743 2°53.356 -999 3.939078 32.762105 -2.871232
2006-11-21 13:43:41 51°19.665 2°53.186 -999 3.971216 33.058659 -2.871232
2006-11-21 13:44:42 51°19.586 2°53.004 -999 3.971009 33.055934 -2.871232
2006-11-21 13:45:42 51°19.522 2°52.844 -999 3.972045 33.054361 -2.871232
2006-11-21 13:46:42 51°19.53 2°52.803 -999 3.977436 33.100392 -2.871232
2006-11-21 13:47:41 51°19.541 2°52.815 -999 3.976088 33.083884 -2.871232
2006-11-21 13:48:42 51°19.547 2°52.834 -999 3.9736 33.059197 -2.871232
2006-11-21 13:49:42 51°19.551 2°52.857 -999 3.975985 33.082122 -2.871232
2006-11-21 13:50:42 51°19.555 2°52.87 -999 3.974118 33.060809 -2.871232
2006-11-21 13:51:41 51°19.565 2°52.879 -999 3.976296 33.082608 -2.871232
2006-11-21 13:52:42 51°19.573 2°52.896 -999 3.962507 32.951521 -2.871232
2006-11-21 13:53:42 51°19.574 2°52.913 -999 3.97049 33.02635 -2.871232
2006-11-21 13:54:42 51°19.577 2°52.925 -999 3.960952 32.933918 -2.871232
2006-11-21 13:55:43 51°19.568 2°52.909 -999 3.977436 33.08279 -2.871232
2006-11-21 13:56:43 51°19.496 2°52.886 -999 3.962403 32.933841 -2.871232
2006-11-21 13:57:42 51°19.477 2°52.839 -999 3.975362 33.050775 -2.871232
2006-11-21 13:58:42 51°19.485 2°52.848 -999 3.975155 33.048853 -2.871232
2006-11-21 13:59:42 51°19.494 2°52.873 -999 3.976503 33.06055 -2.871232
2006-11-21 14:00:43 51°19.499 2°52.893 -999 3.973807 33.03556 -2.871232
2006-11-21 14:01:42 51°19.5 2°52.897 -999 3.979198 33.083945 -2.871232
2006-11-21 14:02:42 51°19.504 2°52.903 -999 3.973185 33.028197 -2.871232
2006-11-21 14:03:43 51°19.514 2°52.932 -999 3.977125 33.067916 -2.871232
2006-11-21 14:04:42 51°19.527 2°52.969 -999 3.973807 33.037156 -2.871232
2006-11-21 14:05:43 51°19.509 2°52.976 -999 3.977332 33.073035 -2.871232
2006-11-21 14:06:42 51°19.476 2°52.914 -999 3.97671 33.068865 -2.871232
2006-11-21 14:07:43 51°19.451 2°52.862 -999 3.973185 33.036178 -2.871232
2006-11-21 14:08:43 51°19.448 2°52.859 -999 3.976917 33.072386 -2.871232
2006-11-21 14:09:42 51°19.452 2°52.878 -999 3.970386 33.011821 -2.871232
2006-11-21 14:10:42 51°19.452 2°52.895 -999 3.975155 33.05684 -2.871232
2006-11-21 14:11:42 51°19.452 2°52.908 -999 3.975466 33.059724 -2.871232
2006-11-21 14:12:42 51°19.458 2°52.93 -999 3.968416 33.001534 -2.871232
2006-11-21 14:13:42 51°19.465 2°52.956 -999 3.97163 33.032935 -2.871232
2006-11-21 14:14:43 51°19.465 2°52.968 -999 3.967483 32.998465 -2.871232
2006-11-21 14:15:43 51°19.466 2°52.974 -999 3.974326 33.059535 -2.871232
2006-11-21 14:16:42 51°19.465 2°52.978 -999 3.972149 33.044933 -2.871232
2006-11-21 14:17:42 51°19.448 2°52.937 -999 3.970179 33.030653 -2.871232
2006-11-21 14:18:42 51°19.439 2°52.852 -999 3.961263 32.952733 -2.871232
2006-11-21 14:19:42 51°19.446 2°52.82 -999 3.96541 32.998383 -2.871232
2006-11-21 14:20:42 51°19.465 2°52.816 -999 3.955458 32.913219 -2.871232
2006-11-21 14:21:42 51°19.494 2°52.822 -999 3.963337 32.988721 -2.871232
2006-11-21 14:22:42 51°19.511 2°52.86 -999 3.95919 32.943063 -2.871232
2006-11-21 14:23:42 51°19.527 2°52.899 -999 3.967276 33.020493 -2.871232
2006-11-21 14:24:43 51°19.542 2°52.94 -999 3.965825 33.00862 -2.871232
2006-11-21 14:25:42 51°19.555 2°52.976 -999 3.964477 33.004896 -2.871232
2006-11-21 14:26:42 51°19.568 2°53.015 -999 3.966136 33.016299 -2.871232
2006-11-21 14:27:42 51°19.601 2°53.042 -999 3.968209 33.029153 -2.871232
2006-11-21 14:28:42 51°19.644 2°53.008 -999 3.967795 33.021309 -2.871232
2006-11-21 14:29:42 51°19.603 2°52.943 -999 3.970905 33.04218 -2.871232
2006-11-21 14:30:42 51°19.541 2°52.835 -999 3.959293 32.943228 -2.871232
2006-11-21 14:31:42 51°19.522 2°52.793 -999 3.965099 33.009872 -2.871232
2006-11-21 14:32:42 51°19.527 2°52.795 -999 3.958775 32.951971 -2.871232
2006-11-21 14:33:42 51°19.536 2°52.797 -999 3.96313 32.990789 -2.871232
2006-11-21 14:34:42 51°19.546 2°52.808 -999 3.962611 32.985179 -2.871232
2006-11-21 14:35:43 51°19.551 2°52.825 -999 3.962715 32.987738 -2.871232
2006-11-21 14:36:42 51°19.549 2°52.841 -999 3.962093 32.983561 -2.871232
2006-11-21 14:37:42 51°19.535 2°52.83 -999 3.962507 32.985813 -2.871232
2006-11-21 14:38:42 51°19.547 2°52.742 -999 3.960227 32.981407 -2.871232
2006-11-21 14:39:42 51°19.575 2°52.704 -999 3.962093 32.985157 -2.871232
2006-11-21 14:40:42 51°19.591 2°52.735 -999 3.958464 32.944301 -2.871232
2006-11-21 14:41:42 51°19.61 2°52.767 -999 3.961056 32.968352 -2.871232
2006-11-21 14:42:42 51°19.613 2°52.805 -999 3.959605 32.955681 -2.871232
2006-11-21 14:43:42 51°19.621 2°52.836 -999 3.9623 32.988679 -2.871232
2006-11-21 14:44:42 51°19.63 2°52.868 -999 3.961678 32.986099 -2.871232
2006-11-21 14:45:42 51°19.643 2°52.901 -999 3.95919 32.966192 -2.871232
2006-11-21 14:46:42 51°19.657 2°52.934 -999 3.957532 32.963563 -2.871232
2006-11-21 14:47:43 51°19.686 2°52.972 -999 3.958568 32.966005 -2.871232
2006-11-21 14:48:42 51°19.727 2°53.108 -999 3.957635 32.945375 -2.871232
2006-11-21 14:49:42 51°19.652 2°53.162 -999 3.958568 32.957226 -2.871232
2006-11-21 14:50:42 51°19.581 2°53.059 -999 3.953074 32.938123 -2.871232
2006-11-21 14:51:42 51°19.517 2°52.911 -999 3.947269 32.903334 -2.871232
2006-11-21 14:52:42 51°19.512 2°52.805 -999 3.948409 32.911537 -2.871232
2006-11-21 14:53:42 51°19.532 2°52.753 -999 3.947476 32.903665 -2.871232
2006-11-21 14:54:43 51°19.558 2°52.718 -999 3.949238 32.904884 -2.871232
2006-11-21 14:55:42 51°19.571 2°52.749 -999 3.951934 32.915565 -2.871232
2006-11-21 14:56:43 51°19.578 2°52.786 -999 3.953385 32.932234 -2.871232
2006-11-21 14:57:42 51°19.582 2°52.817 -999 3.945921 32.872478 -2.871232
2006-11-21 14:58:41 51°19.59 2°52.845 -999 3.945714 32.871349 -2.871232
2006-11-21 14:59:42 51°19.646 2°52.852 -999 3.949135 32.904719 -2.871232
2006-11-21 15:00:43 51°19.666 2°52.743 -999 3.950171 32.900794 -2.871232
2006-11-21 15:01:41 51°19.57 2°52.725 -999 3.953799 32.901812 -2.871232
2006-11-21 15:02:42 51°19.387 2°52.677 -999 3.944988 32.855851 -2.871232
2006-11-21 15:03:43 51°19.174 2°52.634 -999 3.937213 32.821842 -2.871232
2006-11-21 15:04:43 51°18.963 2°52.621 -999 3.933793 32.79244 -2.871232
2006-11-21 15:05:43 51°18.759 2°52.734 -999 3.939597 32.808985 -2.871232
2006-11-21 15:06:42 51°18.552 2°52.795 -999 3.941878 32.808697 -2.871232
2006-11-21 15:07:41 51°18.351 2°52.723 -999 3.939908 32.824597 -2.871232
2006-11-21 15:08:42 51°18.139 2°52.68 -999 3.92156 32.662168 -2.871232
2006-11-21 15:09:42 51°17.929 2°52.64 -999 3.929232 32.77232 -2.871232
2006-11-21 15:10:42 51°17.718 2°52.608 -999 3.922701 32.74102 -2.871232
2006-11-21 15:11:41 51°17.508 2°52.58 -999 3.923117 32.787101 -2.871232
2006-11-21 15:12:43 51°17.288 2°52.566 -999 3.929337 32.883454 -2.871232
2006-11-21 15:13:42 51°17.077 2°52.598 -999 3.930892 32.918812 -2.871232
2006-11-21 15:14:41 51°16.872 2°52.674 -999 3.928508 32.898961 -2.871232
2006-11-21 15:15:41 51°16.662 2°52.772 -999 3.927678 32.871185 -2.871232
2006-11-21 15:16:42 51°16.449 2°52.885 -999 3.925709 32.836811 -2.871232
2006-11-21 15:17:41 51°16.24 2°52.988 -999 3.917934 32.7803 -2.871232
2006-11-21 15:18:42 51°16.023 2°53.086 -999 3.916794 32.807236 -2.871232
2006-11-21 15:19:42 51°15.811 2°53.192 -999 3.905911 32.770399 -2.871232
2006-11-21 15:20:43 51°15.599 2°53.314 -999 3.893473 32.714901 -2.871232
2006-11-21 15:21:42 51°15.395 2°53.435 -999 3.888912 32.660205 -2.871232
2006-11-21 15:22:43 51°15.204 2°53.625 -999 3.890052 32.666076 -2.871232
2006-11-21 15:23:42 51°15.045 2°53.866 -999 3.893784 32.700194 -2.871232
2006-11-21 15:24:42 51°14.884 2°54.117 -999 3.896168 32.705694 -2.871232
2006-11-21 15:25:41 51°14.722 2°54.359 -999 3.884455 32.636077 -2.871232
2006-11-21 15:26:41 51°14.58 2°54.637 -999 3.830459 32.400201 -2.871232
2006-11-21 15:27:41 51°14.435 2°54.912 -999 3.810355 32.325913 -2.871232
2006-11-21 15:28:43 51°14.299 2°55.19 -999 3.670993 31.359338 -2.871232
2006-11-21 15:29:43 51°14.19 2°55.357 -999 3.460937 29.422125 -2.871232
2006-11-21 15:30:41 51°14.095 2°55.429 -999 3.375099 28.583599 -2.871232
2006-11-21 15:31:41 51°14.007 2°55.496 -999 3.260814 27.536864 -2.871232
2006-11-21 15:32:41 51°13.92 2°55.563 -999 3.352219 28.35555 -2.871232
2006-11-21 15:33:43 51°13.827 2°55.631 -999 3.457519 29.325874 -2.871232
2006-11-21 15:34:43 51°13.744 2°55.736 -999 2.806856 23.452847 -2.871232
2006-11-21 15:35:42 51°13.681 2°55.854 -999 2.623662 21.813873 -2.871232
2006-11-21 15:36:42 51°13.632 2°55.969 -999 3.010191 25.265484 -2.871232
2006-11-21 15:37:45 51°13.608 2°56.059 -999 2.990846 25.099062 -2.871232
2006-11-21 15:38:46 51°13.6 2°56.09 -999 3.337725 28.234673 -2.871232